Time;durP1;ratioP1;P1;durP2;ratioP2;P2;SDS_P1;SDS_P2;PMS_P1;PMS_P2;Temp;Humidity;BMP_temperature;BMP_pressure;BME280_temperature;BME280_humidity;BME280_pressure;Samples;Min_cycle;Max_cycle;Signal;HPM_P1;HPM_P2
2021/01/28 00:03:54;;;;;;;19.47;10.80;;;;;;;-3.26;100.00;94132.19;10573958;28;20024;-77
2021/01/28 00:08:55;;;;;;;13.73;9.20;;;;;;;-3.26;100.00;94132.19;10573572;28;20277;-77
2021/01/28 00:13:57;;;;;;;13.23;9.83;;;;;;;-3.24;100.00;94133.81;10573023;28;20744;-77
2021/01/28 00:18:57;;;;;;;15.57;9.13;;;;;;;-3.37;100.00;94127.56;10555271;28;20288;-78
2021/01/28 00:23:58;;;;;;;18.17;9.50;;;;;;;-3.51;100.00;94134.63;10574164;28;20050;-77
2021/01/28 00:28:58;;;;;;;16.20;7.67;;;;;;;-3.67;100.00;94137.63;10597127;27;20281;-77
2021/01/28 00:33:58;;;;;;;8.53;6.03;;;;;;;-3.80;100.00;94133.16;10581647;28;20292;-77
2021/01/28 00:38:59;;;;;;;13.40;8.32;;;;;;;-3.73;100.00;94141.06;10563105;28;20265;-78
2021/01/28 00:43:59;;;;;;;14.37;9.40;;;;;;;-3.62;100.00;94137.84;10580950;28;20030;-78
2021/01/28 00:48:59;;;;;;;13.50;7.50;;;;;;;-3.73;100.00;94143.69;10581385;28;20297;-78
2021/01/28 00:54:00;;;;;;;16.65;9.70;;;;;;;-3.76;100.00;94138.84;10580682;28;20288;-78
2021/01/28 00:59:00;;;;;;;14.95;10.27;;;;;;;-3.81;100.00;94140.25;10580672;28;20544;-78
2021/01/28 01:04:01;;;;;;;14.97;7.93;;;;;;;-3.65;100.00;94136.41;10580667;28;20398;-76
2021/01/28 01:09:01;;;;;;;11.50;7.60;;;;;;;-3.78;100.00;94131.97;10561446;28;20286;-77
2021/01/28 01:14:01;;;;;;;19.42;10.43;;;;;;;-3.95;100.00;94123.66;10579677;28;20281;-77
2021/01/28 01:19:02;;;;;;;13.57;8.38;;;;;;;-3.68;100.00;94131.56;10579556;28;20034;-77
2021/01/28 01:24:03;;;;;;;11.98;7.90;;;;;;;-3.62;100.00;94127.34;10579345;28;20051;-77
2021/01/28 01:29:03;;;;;;;18.15;7.78;;;;;;;-3.57;100.00;94129.34;10579824;28;20024;-78
2021/01/28 01:34:04;;;;;;;12.68;8.15;;;;;;;-3.50;100.00;94130.16;10579161;28;20023;-78
2021/01/28 01:39:04;;;;;;;18.70;10.23;;;;;;;-3.41;100.00;94125.53;10578734;28;20027;-78
2021/01/28 01:44:05;;;;;;;16.40;10.63;;;;;;;-3.33;100.00;94126.13;10579253;28;20319;-78
2021/01/28 01:49:09;;;;;;;15.82;8.35;;;;;;;-3.21;100.00;94125.53;10578860;28;20111;-79
2021/01/28 01:54:36;;;;;;;17.15;9.82;;;;;;;-3.19;100.00;94123.53;10540918;28;20024;-78
2021/01/28 01:59:46;;;;;;;13.35;9.07;;;;;;;-3.10;100.00;94125.75;10535977;28;20059;-79
2021/01/28 02:04:50;;;;;;;19.55;8.13;;;;;;;-3.08;100.00;94138.69;10536504;28;20833;-78
2021/01/28 02:09:51;;;;;;;14.65;7.43;;;;;;;-3.13;100.00;94134.00;10535712;28;20023;-78
2021/01/28 02:14:52;;;;;;;20.02;8.07;;;;;;;-3.13;100.00;94135.84;10535375;28;20027;-78
2021/01/28 02:19:58;;;;;;;15.05;8.57;;;;;;;-3.13;100.00;94146.34;10535608;28;20158;-78
2021/01/28 02:25:10;;;;;;;12.25;7.50;;;;;;;-3.13;100.00;94146.34;10535347;28;20554;-78
2021/01/28 02:30:19;;;;;;;15.00;8.57;;;;;;;-3.28;100.00;94141.28;10535138;28;20027;-78
2021/01/28 02:35:22;;;;;;;16.23;9.05;;;;;;;-3.54;100.00;94155.25;10534667;28;20035;-78
2021/01/28 02:40:25;;;;;;;16.25;9.73;;;;;;;-3.63;100.00;94163.31;10534720;28;20024;-78
2021/01/28 02:45:32;;;;;;;15.73;7.85;;;;;;;-3.70;100.00;94159.03;10515803;28;20024;-78
2021/01/28 02:50:33;;;;;;;11.23;7.38;;;;;;;-3.79;100.00;94163.66;10533586;28;20031;-78
2021/01/28 02:55:35;;;;;;;11.73;9.38;;;;;;;-3.74;100.00;94166.50;10515317;28;20039;-78
2021/01/28 03:00:36;;;;;;;11.75;8.52;;;;;;;-3.86;100.00;94160.22;10533724;28;20035;-78
2021/01/28 03:05:36;;;;;;;13.90;8.57;;;;;;;-3.86;100.00;94163.66;10533775;28;20032;-78
2021/01/28 03:10:36;;;;;;;17.85;8.32;;;;;;;-3.74;100.00;94158.63;10514807;28;20031;-78
2021/01/28 03:15:37;;;;;;;13.32;6.88;;;;;;;-3.65;100.00;94161.88;10533336;28;20498;-78
2021/01/28 03:20:38;;;;;;;21.85;9.38;;;;;;;-3.61;100.00;94163.09;10514593;28;20109;-76
2021/01/28 03:25:39;;;;;;;15.07;7.97;;;;;;;-3.56;100.00;94152.00;10532640;28;20024;-79
2021/01/28 03:30:45;;;;;;;12.00;8.32;;;;;;;-3.56;100.00;94157.25;10532460;28;20463;-77
2021/01/28 03:35:46;;;;;;;19.38;10.32;;;;;;;-3.58;100.00;94148.75;10532360;28;20036;-77
2021/01/28 03:40:47;;;;;;;17.23;10.98;;;;;;;-3.62;100.00;94149.13;10531916;28;20028;-77
2021/01/28 03:45:47;;;;;;;13.48;8.20;;;;;;;-3.89;100.00;94139.59;10532549;28;20023;-77
2021/01/28 03:50:48;;;;;;;14.52;8.05;;;;;;;-3.83;100.00;94138.81;10532623;28;20046;-77
2021/01/28 03:55:48;;;;;;;17.50;8.55;;;;;;;-3.99;100.00;94134.72;10531308;28;20024;-77
2021/01/28 04:00:49;;;;;;;14.35;7.82;;;;;;;-4.09;100.00;94137.72;10531710;28;20514;-77
2021/01/28 04:05:49;;;;;;;12.77;7.82;;;;;;;-4.15;100.00;94139.31;10531227;28;20024;-77
2021/01/28 04:10:50;;;;;;;15.43;8.20;;;;;;;-4.14;100.00;94129.66;10530985;28;20039;-77
2021/01/28 04:15:50;;;;;;;15.20;10.00;;;;;;;-4.16;100.00;94147.38;10531261;28;20028;-78
2021/01/28 04:20:50;;;;;;;15.40;8.23;;;;;;;-4.18;100.00;94150.22;10531874;28;20532;-78
2021/01/28 04:25:51;;;;;;;15.48;7.75;;;;;;;-4.16;100.00;94145.59;10512782;28;20486;-77
2021/01/28 04:30:51;;;;;;;12.53;6.73;;;;;;;-4.04;100.00;94143.19;10531358;28;20020;-76
2021/01/28 04:35:52;;;;;;;16.42;9.73;;;;;;;-4.13;100.00;94147.00;10530728;28;20372;-77
2021/01/28 04:41:11;;;;;;;17.23;9.68;;;;;;;-4.05;100.00;94152.06;10530104;28;20032;-77
2021/01/28 04:46:22;;;;;;;16.58;10.02;;;;;;;-4.26;100.00;94154.81;10530469;28;20089;-77
2021/01/28 04:51:25;;;;;;;13.68;10.05;;;;;;;-4.34;100.00;94159.25;10512620;28;20032;-77
2021/01/28 04:56:27;;;;;;;17.63;9.35;;;;;;;-4.32;100.00;94167.72;10537538;28;20064;-76
2021/01/28 05:01:29;;;;;;;15.80;11.00;;;;;;;-4.17;100.00;94172.00;10530237;28;20032;-75
2021/01/28 05:06:30;;;;;;;17.38;7.93;;;;;;;-4.10;100.00;94170.25;10530187;28;20035;-76
2021/01/28 05:11:33;;;;;;;15.15;9.40;;;;;;;-4.02;100.00;94177.13;10532371;28;20035;-76
2021/01/28 05:16:46;;;;;;;10.60;8.52;;;;;;;-3.95;100.00;94178.78;10537242;28;20135;-76
2021/01/28 05:21:46;;;;;;;18.48;11.25;;;;;;;-3.81;100.00;94181.41;10511080;28;20052;-76
2021/01/28 05:26:46;;;;;;;17.70;10.93;;;;;;;-3.81;100.00;94198.00;10494717;28;20050;-77
2021/01/28 05:31:48;;;;;;;17.33;9.07;;;;;;;-3.90;100.00;94201.00;10535954;28;20031;-73
2021/01/28 05:36:53;;;;;;;21.40;12.10;;;;;;;-3.85;100.00;94198.56;10535619;28;20290;-73
2021/01/28 05:42:24;;;;;;;17.50;9.48;;;;;;;-3.83;100.00;94210.50;10527609;28;20028;-72
2021/01/28 05:47:33;;;;;;;18.48;9.95;;;;;;;-3.74;100.00;94208.53;10510541;28;20487;-72
2021/01/28 05:52:33;;;;;;;12.98;9.85;;;;;;;-3.74;100.00;94213.78;10548125;28;20463;-73
2021/01/28 05:57:52;;;;;;;16.47;9.43;;;;;;;-3.84;100.00;94236.94;10534566;28;20114;-73
2021/01/28 06:03:07;;;;;;;16.75;10.15;;;;;;;-3.81;100.00;94226.88;10534685;28;20864;-73
2021/01/28 06:08:24;;;;;;;12.23;8.77;;;;;;;-3.93;100.00;94225.81;10490580;28;20503;-74
2021/01/28 06:13:49;;;;;;;17.27;9.67;;;;;;;-3.95;100.00;94227.81;10492974;28;20035;-75
2021/01/28 06:19:14;;;;;;;12.18;7.97;;;;;;;-3.81;100.00;94234.75;10495595;28;20046;-74
2021/01/28 06:25:02;;;;;;;13.93;8.65;;;;;;;-3.66;100.00;94247.72;10496219;28;20064;-74
2021/01/28 06:30:03;;;;;;;15.95;8.73;;;;;;;-3.59;100.00;94246.94;10502594;28;20495;-74
2021/01/28 06:35:15;;;;;;;14.23;9.48;;;;;;;-3.54;100.00;94249.78;10529880;28;20032;-75
2021/01/28 06:40:28;;;;;;;18.27;9.68;;;;;;;-3.40;100.00;94245.34;10500279;28;20039;-74
2021/01/28 06:45:33;;;;;;;15.98;8.77;;;;;;;-3.38;100.00;94249.41;10491873;28;20031;-74
2021/01/28 06:50:48;;;;;;;14.43;9.18;;;;;;;-3.26;100.00;94249.66;10484628;28;20038;-73
2021/01/28 06:55:49;;;;;;;14.30;8.20;;;;;;;-3.41;100.00;94249.00;10495123;28;20024;-74
2021/01/28 07:01:00;;;;;;;10.82;6.15;;;;;;;-3.58;100.00;94256.44;10526652;28;20036;-73
2021/01/28 07:06:16;;;;;;;15.15;9.02;;;;;;;-3.56;100.00;94249.16;10532052;28;20024;-74
2021/01/28 07:11:28;;;;;;;9.75;5.65;;;;;;;-3.55;100.00;94269.97;10531695;28;20024;-74
2021/01/28 07:16:35;;;;;;;22.33;6.57;;;;;;;-3.54;100.00;94271.59;10500966;28;20032;-75
2021/01/28 07:21:42;;;;;;;14.40;6.60;;;;;;;-3.36;100.00;94264.97;10472172;28;20087;-74
2021/01/28 07:26:44;;;;;;;10.93;7.60;;;;;;;-3.20;100.00;94275.13;10490215;28;20094;-73
2021/01/28 07:31:47;;;;;;;10.73;7.70;;;;;;;-2.92;100.00;94274.16;10489288;28;20541;-74
2021/01/28 07:37:00;;;;;;;11.05;6.03;;;;;;;-2.74;100.00;94281.44;10471478;28;20032;-74
2021/01/28 07:42:32;;;;;;;13.45;7.15;;;;;;;-2.43;100.00;94282.66;10489572;28;20021;-74
2021/01/28 07:47:33;;;;;;;18.85;8.13;;;;;;;-1.85;100.00;94268.00;10488745;28;20464;-74
2021/01/28 07:52:39;;;;;;;11.97;7.80;;;;;;;-1.15;100.00;94264.66;10489347;28;20032;-74
2021/01/28 07:57:44;;;;;;;12.65;6.13;;;;;;;-0.54;100.00;94268.50;10488720;28;20291;-74
2021/01/28 08:03:00;;;;;;;11.18;6.60;;;;;;;-0.48;100.00;94266.81;10489181;28;20036;-74
2021/01/28 08:08:14;;;;;;;8.48;5.30;;;;;;;0.11;96.84;94264.63;10489071;28;20557;-74
2021/01/28 08:13:24;;;;;;;10.45;6.30;;;;;;;-0.21;97.18;94270.84;10488922;28;20044;-74
2021/01/28 08:18:26;;;;;;;15.00;7.43;;;;;;;-1.08;100.00;94289.94;10489309;28;20075;-73
2021/01/28 08:23:27;;;;;;;9.50;6.65;;;;;;;-1.42;100.00;94286.66;10488200;28;20048;-74
2021/01/28 08:28:33;;;;;;;12.48;6.80;;;;;;;-1.79;100.00;94277.69;10487991;28;20020;-74
2021/01/28 08:33:37;;;;;;;13.65;7.80;;;;;;;-1.35;100.00;94289.28;10487650;28;20074;-74
2021/01/28 08:38:37;;;;;;;10.48;6.55;;;;;;;-0.64;100.00;94287.44;10487487;28;20016;-74
2021/01/28 08:43:37;;;;;;;10.87;6.97;;;;;;;-0.61;100.00;94289.66;10487979;28;20021;-74
2021/01/28 08:48:38;;;;;;;13.50;7.88;;;;;;;-1.44;100.00;94303.72;10493791;28;20282;-74
2021/01/28 08:53:47;;;;;;;31.38;7.57;;;;;;;-0.73;100.00;94292.16;10494706;28;20024;-74
2021/01/28 08:58:48;;;;;;;12.77;6.35;;;;;;;-1.66;100.00;94297.91;10495312;28;20032;-74
2021/01/28 09:04:05;;;;;;;9.30;5.82;;;;;;;-1.40;100.00;94302.28;10476786;28;20469;-74
2021/01/28 09:09:19;;;;;;;9.80;5.70;;;;;;;-0.45;100.00;94304.13;10476843;28;20035;-74
2021/01/28 09:14:34;;;;;;;6.38;5.13;;;;;;;0.05;100.00;94318.34;10476326;28;20043;-74
2021/01/28 09:19:40;;;;;;;6.78;3.65;;;;;;;-0.25;91.80;94308.44;10494115;28;20028;-74
2021/01/28 09:24:47;;;;;;;8.82;4.22;;;;;;;0.68;100.00;94312.81;10476027;28;20048;-74
2021/01/28 09:29:50;;;;;;;6.60;3.30;;;;;;;1.22;87.78;94303.38;10494245;28;20036;-74
2021/01/28 09:35:15;;;;;;;7.20;3.88;;;;;;;1.16;89.03;94308.53;10494149;28;20056;-74
2021/01/28 09:40:23;;;;;;;8.52;5.22;;;;;;;0.86;92.37;94308.50;10494407;28;20032;-74
2021/01/28 09:45:25;;;;;;;;;;;;;;;0.69;91.81;94308.31;10493961;28;20037;-74
2021/01/28 09:50:26;;;;;;;8.02;4.97;;;;;;;0.14;96.26;94319.69;10493510;28;19918;-74
2021/01/28 09:55:33;;;;;;;8.45;5.65;;;;;;;-0.94;100.00;94310.97;10493216;28;20020;-74
2021/01/28 10:00:33;;;;;;;7.20;3.67;;;;;;;-1.27;100.00;94310.13;10493529;28;20083;-73
2021/01/28 10:05:35;;;;;;;7.77;5.03;;;;;;;-0.79;100.00;94308.06;10493081;28;20082;-74
2021/01/28 10:10:39;;;;;;;8.10;4.90;;;;;;;-0.87;100.00;94315.19;10492478;28;20345;-74
2021/01/28 10:15:39;;;;;;;10.57;5.32;;;;;;;-0.57;100.00;94300.59;10492570;28;20036;-74
2021/01/28 10:20:42;;;;;;;6.78;4.47;;;;;;;-0.07;98.10;94289.19;10492374;28;20056;-75
2021/01/28 10:25:42;;;;;;;13.93;5.93;;;;;;;1.22;89.44;94284.84;10491546;28;20028;-74
2021/01/28 10:30:42;;;;;;;12.17;5.83;;;;;;;2.09;86.07;94283.47;10491589;28;20378;-76
2021/01/28 10:35:43;;;;;;;8.23;4.15;;;;;;;1.69;80.64;94275.16;10491551;28;20377;-74
2021/01/28 10:40:43;;;;;;;7.77;5.20;;;;;;;1.82;85.67;94290.00;10491050;28;20016;-74
2021/01/28 10:45:44;;;;;;;12.70;7.30;;;;;;;1.59;84.18;94301.41;10491472;28;20788;-74
2021/01/28 10:50:45;;;;;;;10.20;5.13;;;;;;;1.43;90.52;94297.56;10491076;28;20274;-74
2021/01/28 10:55:45;;;;;;;9.48;4.88;;;;;;;1.98;88.97;94280.59;10490670;28;20083;-74
2021/01/28 11:00:46;;;;;;;7.90;5.40;;;;;;;2.05;83.80;94283.09;10490568;28;20033;-74
2021/01/28 11:05:46;;;;;;;11.70;5.27;;;;;;;1.38;87.43;94284.19;10490338;28;20649;-74
2021/01/28 11:10:46;;;;;;;10.32;4.80;;;;;;;2.15;86.48;94277.22;10489533;28;20359;-74
2021/01/28 11:15:47;;;;;;;10.23;6.23;;;;;;;1.60;86.95;94270.41;10489442;28;20502;-74
2021/01/28 11:20:47;;;;;;;7.72;5.07;;;;;;;0.82;92.31;94279.06;10489912;28;20368;-73
2021/01/28 11:25:48;;;;;;;9.68;6.00;;;;;;;0.43;100.00;94275.88;10489489;28;20024;-74
2021/01/28 11:30:48;;;;;;;8.00;5.47;;;;;;;-0.04;100.00;94268.44;10488768;28;20031;-73
2021/01/28 11:35:48;;;;;;;10.70;6.83;;;;;;;-0.16;100.00;94274.66;10489132;28;20055;-74
2021/01/28 11:40:49;;;;;;;13.60;8.67;;;;;;;-0.36;100.00;94273.81;10489286;28;20811;-74
2021/01/28 11:45:49;;;;;;;8.52;5.95;;;;;;;-0.46;100.00;94276.16;10488384;28;20036;-74
2021/01/28 11:50:50;;;;;;;13.65;6.57;;;;;;;-0.54;100.00;94269.28;10488893;28;20028;-74
2021/01/28 11:55:50;;;;;;;13.10;7.40;;;;;;;-0.66;100.00;94270.22;10488265;28;20448;-74
2021/01/28 12:00:51;;;;;;;13.10;8.02;;;;;;;-0.49;100.00;94255.44;10487000;28;20033;-75
2021/01/28 12:05:51;;;;;;;10.65;6.47;;;;;;;-0.63;100.00;94249.44;10488111;28;20368;-75
2021/01/28 12:10:53;;;;;;;18.15;7.53;;;;;;;-0.57;100.00;94253.09;10488250;28;20513;-74
2021/01/28 12:15:53;;;;;;;14.38;8.15;;;;;;;-0.39;100.00;94247.03;10503674;28;20037;-74
2021/01/28 12:20:54;;;;;;;11.77;6.93;;;;;;;-0.05;100.00;94243.03;10490710;28;20067;-75
2021/01/28 12:25:54;;;;;;;11.32;6.65;;;;;;;0.11;100.00;94254.06;10497142;28;20282;-75
2021/01/28 12:30:54;;;;;;;13.47;7.30;;;;;;;0.07;100.00;94243.16;10496839;28;20033;-75
2021/01/28 12:35:55;;;;;;;12.73;6.68;;;;;;;0.43;100.00;94244.16;10495957;28;20661;-75
2021/01/28 12:40:56;;;;;;;8.73;6.23;;;;;;;0.68;100.00;94256.44;10496254;28;20031;-75
2021/01/28 12:45:57;;;;;;;12.25;6.03;;;;;;;0.86;100.00;94242.38;10495850;28;20275;-74
2021/01/28 12:50:58;;;;;;;8.65;6.00;;;;;;;0.96;100.00;94244.47;10495462;28;20055;-74
2021/01/28 12:55:58;;;;;;;9.90;6.35;;;;;;;0.88;100.00;94235.03;10495579;28;20104;-74
2021/01/28 13:00:58;;;;;;;11.57;5.95;;;;;;;0.91;100.00;94239.06;10495427;28;20032;-75
2021/01/28 13:05:59;;;;;;;20.60;7.77;;;;;;;0.75;100.00;94238.66;10477128;28;20035;-75
2021/01/28 13:10:59;;;;;;;9.43;5.65;;;;;;;1.08;100.00;94236.59;10495323;28;20262;-75
2021/01/28 13:15:59;;;;;;;7.30;4.90;;;;;;;0.85;100.00;94232.81;10495169;28;20035;-74
2021/01/28 13:21:00;;;;;;;6.23;3.33;;;;;;;0.04;91.28;94243.56;10494502;28;20055;-74
2021/01/28 13:26:00;;;;;;;4.50;3.92;;;;;;;-0.46;94.34;94233.09;10494730;28;20376;-74
2021/01/28 13:31:01;;;;;;;5.70;3.97;;;;;;;-0.74;89.92;94232.50;10493763;28;20466;-74
2021/01/28 13:36:01;;;;;;;7.35;2.75;;;;;;;-0.94;93.02;94240.56;10494107;28;20533;-74
2021/01/28 13:41:02;;;;;;;4.45;3.30;;;;;;;-1.07;95.91;94249.38;10475493;28;20020;-74
2021/01/28 13:46:03;;;;;;;7.13;3.60;;;;;;;-1.00;94.59;94246.69;10493974;28;20024;-74
2021/01/28 13:51:04;;;;;;;5.05;3.80;;;;;;;-1.39;90.91;94240.63;10493611;28;20063;-74
2021/01/28 13:56:04;;;;;;;5.10;3.55;;;;;;;-1.61;92.76;94245.41;10493009;28;20032;-75
2021/01/28 14:01:04;;;;;;;5.05;4.38;;;;;;;-1.61;94.43;94248.03;10493347;28;20028;-74
2021/01/28 14:06:05;;;;;;;8.03;4.63;;;;;;;-1.37;100.00;94241.22;10493154;28;20400;-74
2021/01/28 14:11:05;;;;;;;4.22;3.28;;;;;;;-1.32;96.02;94236.13;10474413;28;20471;-74
2021/01/28 14:16:06;;;;;;;8.30;4.53;;;;;;;-1.19;96.87;94242.34;10492521;28;20046;-74
2021/01/28 14:21:06;;;;;;;5.17;3.23;;;;;;;-1.28;94.98;94247.06;10474168;28;20477;-74
2021/01/28 14:26:07;;;;;;;6.03;4.68;;;;;;;-1.17;94.23;94238.50;10491781;28;20290;-74
2021/01/28 14:31:08;;;;;;;9.68;6.45;;;;;;;-1.01;100.00;94234.53;10474323;28;20068;-73
2021/01/28 14:36:08;;;;;;;9.65;6.40;;;;;;;-1.07;98.95;94240.66;10473790;28;20059;-74
2021/01/28 14:41:09;;;;;;;11.68;6.55;;;;;;;-1.26;98.32;94230.00;10491261;28;20150;-74
2021/01/28 14:46:09;;;;;;;9.73;6.85;;;;;;;-1.27;100.00;94227.59;10490666;28;20020;-73
2021/01/28 14:51:10;;;;;;;7.22;5.47;;;;;;;-1.35;100.00;94228.66;10490969;28;20109;-73
2021/01/28 14:56:10;;;;;;;14.60;6.70;;;;;;;-1.48;98.38;94220.81;10490429;28;20573;-74
2021/01/28 15:01:10;;;;;;;10.77;7.25;;;;;;;-1.44;100.00;94222.84;10489688;28;20346;-74
2021/01/28 15:06:11;;;;;;;12.07;6.73;;;;;;;-1.66;98.15;94232.88;10472367;28;20035;-73
2021/01/28 15:11:12;;;;;;;14.80;6.80;;;;;;;-1.56;96.82;94241.13;10490015;28;20089;-73
2021/01/28 15:16:12;;;;;;;6.78;4.85;;;;;;;-1.75;91.65;94250.72;10489250;28;20293;-73
2021/01/28 15:21:13;;;;;;;6.93;6.22;;;;;;;-1.94;95.31;94249.78;10489529;28;20495;-74
2021/01/28 15:26:14;;;;;;;9.98;6.25;;;;;;;-1.82;98.84;94252.56;10489201;28;20028;-73
2021/01/28 15:31:15;;;;;;;8.93;7.78;;;;;;;-1.76;97.06;94251.75;10489217;28;20032;-73
2021/01/28 15:36:16;;;;;;;9.13;6.47;;;;;;;-1.82;96.94;94249.94;10510293;28;20067;-73
2021/01/28 15:41:17;;;;;;;7.80;6.70;;;;;;;-2.00;98.78;94250.59;10501021;28;20056;-73
2021/01/28 15:46:17;;;;;;;10.20;6.75;;;;;;;-2.03;99.20;94251.00;10488441;28;20051;-74
2021/01/28 15:51:18;;;;;;;10.73;7.97;;;;;;;-2.10;100.00;94234.44;10518211;28;20108;-73
2021/01/28 15:56:18;;;;;;;10.65;7.57;;;;;;;-2.13;100.00;94230.38;10529653;28;20383;-73
2021/01/28 16:01:18;;;;;;;8.02;6.22;;;;;;;-2.13;96.92;94227.75;10529190;28;20028;-74
2021/01/28 16:06:20;;;;;;;9.73;5.63;;;;;;;-2.01;100.00;94216.56;10529461;28;20024;-74
2021/01/28 16:11:21;;;;;;;7.65;5.05;;;;;;;-2.14;93.57;94220.06;10525460;28;20270;-74
2021/01/28 16:16:21;;;;;;;9.05;6.05;;;;;;;-2.12;94.14;94223.28;10487963;28;20453;-74
2021/01/28 16:21:21;;;;;;;7.27;4.83;;;;;;;-2.23;88.99;94222.13;10487664;28;20044;-74
2021/01/28 16:26:22;;;;;;;10.50;6.27;;;;;;;-2.26;95.96;94231.22;10487447;28;20282;-74
2021/01/28 16:31:23;;;;;;;8.98;5.68;;;;;;;-2.29;96.48;94233.44;10489093;28;20032;-74
2021/01/28 16:36:23;;;;;;;11.27;7.15;;;;;;;-2.15;100.00;94231.59;10488554;28;20064;-74
2021/01/28 16:41:24;;;;;;;9.23;5.17;;;;;;;-2.05;99.03;94247.78;10487332;28;20091;-74
2021/01/28 16:46:24;;;;;;;6.75;4.78;;;;;;;-2.17;93.02;94250.25;10470273;28;20266;-74
2021/01/28 16:51:25;;;;;;;8.07;4.47;;;;;;;-2.19;91.15;94261.97;10487935;28;20021;-74
2021/01/28 16:56:25;;;;;;;4.47;3.60;;;;;;;-2.17;89.22;94252.06;10488105;28;20028;-74
2021/01/28 17:01:26;;;;;;;8.20;4.77;;;;;;;-2.20;93.21;94240.13;10508777;28;20027;-74
2021/01/28 17:06:26;;;;;;;6.63;4.25;;;;;;;-2.15;90.88;94236.88;10526524;28;20353;-74
2021/01/28 17:11:27;;;;;;;4.53;3.83;;;;;;;-2.14;90.21;94235.84;10534517;28;20035;-74
2021/01/28 17:16:27;;;;;;;8.65;4.50;;;;;;;-2.05;100.00;94237.25;10533688;28;20278;-76
2021/01/28 17:21:27;;;;;;;9.03;6.13;;;;;;;-2.13;94.99;94235.66;10524536;28;20127;-75
2021/01/28 17:26:28;;;;;;;5.35;3.78;;;;;;;-2.04;96.00;94246.75;10511179;28;20274;-76
2021/01/28 17:31:28;;;;;;;16.42;3.75;;;;;;;-2.03;94.52;94266.81;10512691;28;20027;-76
2021/01/28 17:36:29;;;;;;;8.07;4.13;;;;;;;-2.11;95.85;94267.84;10516830;28;20029;-76
2021/01/28 17:41:29;;;;;;;7.40;4.17;;;;;;;-2.09;94.39;94270.28;10511090;28;20080;-75
2021/01/28 17:46:30;;;;;;;5.07;4.07;;;;;;;-2.01;95.52;94272.69;10511405;28;20274;-75
2021/01/28 17:51:31;;;;;;;6.65;3.67;;;;;;;-1.99;93.50;94246.97;10510551;28;20283;-76
2021/01/28 17:56:32;;;;;;;4.90;3.20;;;;;;;-1.95;93.18;94256.06;10512465;28;20024;-76
2021/01/28 18:01:33;;;;;;;5.10;3.33;;;;;;;-1.86;92.11;94255.84;10511082;28;20020;-76
2021/01/28 18:06:34;;;;;;;5.53;3.88;;;;;;;-1.84;94.90;94248.53;10487944;28;20772;-76
2021/01/28 18:11:39;;;;;;;8.32;3.03;;;;;;;-1.82;98.34;94255.19;10506378;28;20031;-77
2021/01/28 18:16:40;;;;;;;4.97;3.15;;;;;;;-1.88;94.91;94258.69;10505525;28;20056;-76
2021/01/28 18:21:43;;;;;;;8.47;5.07;;;;;;;-1.77;97.97;94250.13;10503572;28;20126;-76
2021/01/28 18:26:43;;;;;;;14.38;4.10;;;;;;;-1.65;94.54;94231.03;10495828;28;20526;-76
2021/01/28 18:31:44;;;;;;;5.85;3.38;;;;;;;-1.63;95.09;94242.16;10482978;28;20024;-76
2021/01/28 18:36:44;;;;;;;3.95;3.17;;;;;;;-1.76;90.49;94241.22;10482652;28;20028;-76
2021/01/28 18:41:48;;;;;;;10.93;3.22;;;;;;;-1.69;93.47;94237.72;10523539;28;20021;-77
2021/01/28 18:46:48;;;;;;;57.70;28.33;;;;;;;-2.21;100.00;94233.25;10488334;28;20457;-76
2021/01/28 18:51:49;;;;;;;56.47;26.90;;;;;;;-2.52;100.00;94226.03;10489181;28;20033;-74
2021/01/28 18:56:50;;;;;;;59.35;26.30;;;;;;;-2.92;100.00;94242.59;10473286;28;20032;-74
2021/01/28 19:01:52;;;;;;;59.47;25.95;;;;;;;-3.07;100.00;94248.03;10468988;28;20056;-74
2021/01/28 19:06:53;;;;;;;61.40;26.08;;;;;;;-3.28;100.00;94234.09;10490715;28;20020;-74
2021/01/28 19:11:53;;;;;;;56.72;27.45;;;;;;;-3.39;100.00;94242.56;10502174;28;20034;-75
2021/01/28 19:16:53;;;;;;;57.72;26.50;;;;;;;-3.63;100.00;94234.22;10506714;28;20393;-76
2021/01/28 19:21:54;;;;;;;58.03;26.42;;;;;;;-3.62;100.00;94248.94;10506412;28;20044;-76
2021/01/28 19:26:55;;;;;;;49.97;22.48;;;;;;;-4.04;100.00;94232.44;10494607;28;20028;-77
2021/01/28 19:31:56;;;;;;;62.13;29.88;;;;;;;-4.04;100.00;94242.13;10506815;28;20529;-76
2021/01/28 19:36:57;;;;;;;69.43;28.13;;;;;;;-4.04;100.00;94229.81;10495514;28;20098;-77
2021/01/28 19:41:58;;;;;;;60.17;29.10;;;;;;;-4.05;100.00;94235.25;10488660;28;20456;-75
2021/01/28 19:46:58;;;;;;;59.00;27.67;;;;;;;-4.01;100.00;94234.66;10505162;28;20297;-76
2021/01/28 19:51:58;;;;;;;63.03;30.10;;;;;;;-4.09;100.00;94232.19;10489906;28;20039;-76
2021/01/28 19:56:59;;;;;;;67.13;26.60;;;;;;;-4.00;100.00;94231.03;10504673;28;20340;-73
2021/01/28 20:01:59;;;;;;;66.10;30.83;;;;;;;-4.02;100.00;94233.06;10503863;28;20278;-74
2021/01/28 20:07:01;;;;;;;50.55;25.88;;;;;;;-4.15;100.00;94236.41;10502459;28;20040;-73
2021/01/28 20:12:02;;;;;;;54.85;30.20;;;;;;;-4.12;100.00;94222.09;10462919;28;20083;-73
2021/01/28 20:17:02;;;;;;;56.33;27.42;;;;;;;-4.06;100.00;94217.88;10507790;28;20035;-80
2021/01/28 20:22:03;;;;;;;59.67;25.00;;;;;;;-4.11;100.00;94213.22;10506318;28;20121;-79
2021/01/28 20:27:09;;;;;;;55.47;28.75;;;;;;;-4.18;100.00;94217.63;10528109;28;20063;-79
2021/01/28 20:32:09;;;;;;;59.78;30.83;;;;;;;-4.34;100.00;94203.84;10474612;28;20105;-80
2021/01/28 20:37:10;;;;;;;48.90;24.63;;;;;;;-4.20;100.00;94207.34;10489681;28;20086;-79
2021/01/28 20:42:11;;;;;;;61.55;32.38;;;;;;;-4.36;100.00;94197.97;10530123;28;20039;-80
2021/01/28 20:47:12;;;;;;;49.92;26.80;;;;;;;-4.43;100.00;94183.22;10523301;28;20403;-81
2021/01/28 20:52:12;;;;;;;51.00;25.23;;;;;;;-4.47;100.00;94180.16;10523698;28;20449;-75
2021/01/28 20:57:13;;;;;;;52.17;22.90;;;;;;;-4.47;100.00;94185.41;10537047;28;20078;-74
2021/01/28 21:02:13;;;;;;;53.28;27.08;;;;;;;-4.67;100.00;94178.22;10510148;28;20274;-74
2021/01/28 21:07:14;;;;;;;43.47;22.33;;;;;;;-4.50;100.00;94177.91;10476293;28;20107;-73
2021/01/28 21:12:14;;;;;;;48.45;22.45;;;;;;;-4.48;100.00;94171.47;10495003;28;20021;-74
2021/01/28 21:17:15;;;;;;;46.75;23.17;;;;;;;-4.50;100.00;94172.69;10514403;28;20468;-73
2021/01/28 21:22:15;;;;;;;54.80;28.02;;;;;;;-4.46;100.00;94172.09;10493732;28;20133;-74
2021/01/28 21:27:16;;;;;;;47.92;20.83;;;;;;;-4.33;100.00;94173.97;10494107;28;20040;-73
2021/01/28 21:32:17;;;;;;;51.20;25.85;;;;;;;-4.36;100.00;94174.34;10474914;28;20031;-73
2021/01/28 21:37:17;;;;;;;43.97;23.90;;;;;;;-4.35;100.00;94169.94;10545719;28;20020;-73
2021/01/28 21:42:18;;;;;;;57.58;25.15;;;;;;;-4.47;100.00;94156.53;10516464;28;20105;-74
2021/01/28 21:47:18;;;;;;;46.15;26.30;;;;;;;-4.54;100.00;94156.50;10533594;28;20123;-74
2021/01/28 21:52:18;;;;;;;57.95;26.75;;;;;;;-4.58;100.00;94139.53;10559258;28;20028;-73
2021/01/28 21:57:19;;;;;;;40.80;24.38;;;;;;;-4.55;100.00;94151.47;10576318;28;20024;-74
2021/01/28 22:02:19;;;;;;;37.45;17.63;;;;;;;-4.55;100.00;94139.19;10543569;28;20542;-73
2021/01/28 22:07:20;;;;;;;41.67;20.10;;;;;;;-4.57;100.00;94135.94;10535701;28;20095;-74
2021/01/28 22:12:23;;;;;;;45.23;20.80;;;;;;;-4.60;100.00;94141.56;10517149;28;20415;-74
2021/01/28 22:17:23;;;;;;;51.33;28.83;;;;;;;-4.72;100.00;94133.41;10535329;28;20278;-74
2021/01/28 22:22:23;;;;;;;47.90;23.27;;;;;;;-4.73;100.00;94128.38;10496778;28;20075;-74
2021/01/28 22:27:25;;;;;;;40.20;20.85;;;;;;;-4.84;100.00;94124.50;10492829;28;20051;-74
2021/01/28 22:32:25;;;;;;;44.38;22.25;;;;;;;-4.70;100.00;94126.19;10456994;28;20033;-74
2021/01/28 22:37:25;;;;;;;45.08;21.35;;;;;;;-4.75;100.00;94112.03;10433628;28;20044;-74
2021/01/28 22:42:26;;;;;;;34.90;19.05;;;;;;;-4.79;100.00;94116.84;10450832;28;20021;-74
2021/01/28 22:47:26;;;;;;;36.57;18.13;;;;;;;-4.68;100.00;94116.28;10451198;28;20036;-74
2021/01/28 22:52:27;;;;;;;28.30;16.67;;;;;;;-4.47;100.00;94114.59;10432792;28;20282;-74
2021/01/28 22:57:27;;;;;;;25.33;13.63;;;;;;;-4.49;100.00;94134.97;10450333;28;20817;-73
2021/01/28 23:02:27;;;;;;;25.90;16.07;;;;;;;-4.39;100.00;94122.28;10450376;28;20785;-74